createdAt,value
2023-01-22T00:01:54.819Z,-0.68
2023-01-22T00:04:21.609Z,-0.70
2023-01-22T00:06:48.261Z,-0.67
2023-01-22T00:09:15.876Z,-0.69
2023-01-22T00:11:43.020Z,-0.81
2023-01-22T00:14:09.958Z,-0.82
2023-01-22T00:16:36.745Z,-1.01
2023-01-22T00:19:06.127Z,-0.91
2023-01-22T00:21:36.179Z,-1.00
2023-01-22T00:24:06.452Z,-1.05
2023-01-22T00:26:38.489Z,-1.09
2023-01-22T00:29:05.406Z,-1.09
2023-01-22T00:31:32.269Z,-1.15
2023-01-22T00:33:59.569Z,-1.19
2023-01-22T00:36:36.764Z,-1.25
2023-01-22T00:39:03.706Z,-1.13
2023-01-22T00:41:31.592Z,-1.22
2023-01-22T00:43:59.101Z,-1.20
2023-01-22T00:46:25.859Z,-1.24
2023-01-22T00:48:55.108Z,-1.29
2023-01-22T00:51:22.454Z,-1.35
2023-01-22T00:53:51.601Z,-1.29
2023-01-22T00:56:18.289Z,-1.28
2023-01-22T00:58:45.843Z,-1.32
2023-01-22T01:01:16.164Z,-1.27
2023-01-22T01:03:43.239Z,-1.25
2023-01-22T01:06:14.451Z,-1.31
2023-01-22T01:08:44.029Z,-1.36
2023-01-22T01:11:27.836Z,-1.39
2023-01-22T01:13:55.780Z,-1.30
2023-01-22T01:16:29.720Z,-1.39
2023-01-22T01:18:58.745Z,-1.41
2023-01-22T01:21:26.200Z,-1.45
2023-01-22T01:24:00.147Z,-1.36
2023-01-22T01:26:29.910Z,-1.40
2023-01-22T01:28:56.607Z,-1.39
2023-01-22T01:31:26.222Z,-1.32
2023-01-22T01:33:53.570Z,-1.34
2023-01-22T01:36:47.663Z,-1.35
2023-01-22T01:39:17.450Z,-1.41
2023-01-22T01:41:44.712Z,-1.31
2023-01-22T01:44:13.476Z,-1.32
2023-01-22T01:47:01.259Z,-1.34
2023-01-22T01:49:38.824Z,-1.33
2023-01-22T01:52:11.512Z,-1.39
2023-01-22T01:54:39.382Z,-1.32
2023-01-22T01:57:17.714Z,-1.42
2023-01-22T01:59:44.857Z,-1.34
2023-01-22T02:02:11.767Z,-1.36
2023-01-22T02:04:40.696Z,-1.35
2023-01-22T02:07:07.751Z,-1.31
2023-01-22T02:09:37.904Z,-1.30
2023-01-22T02:12:05.344Z,-1.36
2023-01-22T02:14:35.724Z,-1.28
2023-01-22T02:17:06.283Z,-1.35
2023-01-22T02:19:33.209Z,-1.36
2023-01-22T02:22:00.915Z,-1.35
2023-01-22T02:24:35.180Z,-1.35
2023-01-22T02:27:02.335Z,-1.32
2023-01-22T02:29:30.099Z,-1.39
2023-01-22T02:32:20.093Z,-1.31
2023-01-22T02:34:49.740Z,-1.33
2023-01-22T02:37:17.035Z,-1.31
2023-01-22T02:39:43.698Z,-1.33
2023-01-22T02:42:10.792Z,-1.33
2023-01-22T02:44:39.335Z,-1.29
2023-01-22T02:47:06.075Z,-1.36
2023-01-22T02:49:33.156Z,-1.40
2023-01-22T02:52:01.452Z,-1.33
2023-01-22T02:54:29.927Z,-1.32
2023-01-22T02:57:26.028Z,-1.23
2023-01-22T03:00:18.838Z,-1.36
2023-01-22T03:02:53.390Z,-1.49
2023-01-22T03:05:23.578Z,-1.46
2023-01-22T03:07:50.942Z,-1.38
2023-01-22T03:10:21.334Z,-1.38
2023-01-22T03:13:06.995Z,-1.50
2023-01-22T03:15:52.561Z,-1.47
2023-01-22T03:18:38.280Z,-1.45
2023-01-22T03:21:17.289Z,-1.36
2023-01-22T03:23:52.413Z,-1.48
2023-01-22T03:26:22.683Z,-1.40
2023-01-22T03:28:50.588Z,-1.32
2023-01-22T03:31:22.935Z,-1.32
2023-01-22T03:33:51.063Z,-1.33
2023-01-22T03:36:17.882Z,-1.38
2023-01-22T03:38:49.202Z,-1.52
2023-01-22T03:41:24.264Z,-1.42
2023-01-22T03:43:53.935Z,-1.37
2023-01-22T03:46:25.575Z,-1.35
2023-01-22T03:48:55.829Z,-1.46
2023-01-22T03:51:25.640Z,-1.43
2023-01-22T03:53:52.247Z,-1.38
2023-01-22T03:56:23.293Z,-1.44
2023-01-22T03:58:51.125Z,-1.43
2023-01-22T04:01:21.700Z,-1.43
2023-01-22T04:03:50.231Z,-1.50
2023-01-22T04:06:19.502Z,-1.48
2023-01-22T04:08:52.509Z,-1.53
2023-01-22T04:11:22.390Z,-1.53
2023-01-22T04:13:51.922Z,-1.45
2023-01-22T04:16:20.613Z,-1.55
2023-01-22T04:19:19.578Z,-1.54
2023-01-22T04:22:14.162Z,-1.44
2023-01-22T04:24:51.167Z,-1.52
2023-01-22T04:27:17.812Z,-1.45
2023-01-22T04:29:46.269Z,-1.50
2023-01-22T04:32:12.964Z,-1.54
2023-01-22T04:35:03.959Z,-1.35
2023-01-22T04:37:47.142Z,-1.45
2023-01-22T04:40:17.173Z,-1.55
2023-01-22T04:42:45.697Z,-1.52
2023-01-22T04:45:38.592Z,-1.49
2023-01-22T04:48:16.640Z,-1.52
2023-01-22T04:50:52.997Z,-1.59
2023-01-22T04:53:19.966Z,-1.53
2023-01-22T04:55:49.347Z,-1.45
2023-01-22T04:58:21.887Z,-1.42
2023-01-22T05:00:52.942Z,-1.56
2023-01-22T05:03:19.729Z,-1.44
2023-01-22T05:05:48.809Z,-1.41
2023-01-22T05:08:16.988Z,-1.49
2023-01-22T05:10:44.395Z,-1.43
2023-01-22T05:13:19.710Z,-1.47
2023-01-22T05:15:46.726Z,-1.54
2023-01-22T05:18:14.562Z,-1.38
2023-01-22T05:20:53.658Z,-1.50
2023-01-22T05:23:36.195Z,-1.51
2023-01-22T05:26:09.451Z,-1.49
2023-01-22T05:28:43.573Z,-1.51
2023-01-22T05:31:30.878Z,-1.55
2023-01-22T05:34:03.774Z,-1.56
2023-01-22T05:36:32.526Z,-1.54
2023-01-22T05:39:04.970Z,-1.51
2023-01-22T05:41:32.541Z,-1.54
2023-01-22T05:44:04.161Z,-1.47
2023-01-22T05:46:31.547Z,-1.54
2023-01-22T05:49:15.616Z,-1.40
2023-01-22T05:51:44.009Z,-1.57
2023-01-22T05:54:22.845Z,-1.52
2023-01-22T05:57:19.705Z,-1.56
2023-01-22T05:59:52.837Z,-1.54
2023-01-22T06:02:19.540Z,-1.54
2023-01-22T06:04:46.370Z,-1.56
2023-01-22T06:07:25.691Z,-1.49
2023-01-22T06:10:02.413Z,-1.44
2023-01-22T06:12:37.121Z,-1.45
2023-01-22T06:15:10.021Z,-1.45
2023-01-22T06:17:37.121Z,-1.51
2023-01-22T06:20:05.353Z,-1.52
2023-01-22T06:22:32.794Z,-1.58
2023-01-22T06:25:07.606Z,-1.57
2023-01-22T06:27:55.984Z,-1.55
2023-01-22T06:30:45.344Z,-1.54
2023-01-22T06:33:17.297Z,-1.41
2023-01-22T06:35:46.401Z,-1.41
2023-01-22T06:38:15.576Z,-1.49
2023-01-22T06:40:58.307Z,-1.47
2023-01-22T06:43:37.697Z,-1.48
2023-01-22T06:46:07.655Z,-1.54
2023-01-22T06:49:04.943Z,-1.40
2023-01-22T06:51:32.241Z,-1.43
2023-01-22T06:53:59.399Z,-1.47
2023-01-22T06:56:28.285Z,-1.49
2023-01-22T06:59:00.507Z,-1.42
2023-01-22T07:01:28.040Z,-1.31
2023-01-22T07:04:09.111Z,-1.41
2023-01-22T07:09:17.229Z,-1.28
2023-01-22T07:11:45.619Z,-1.35
2023-01-22T07:14:28.850Z,-1.23
2023-01-22T07:20:08.740Z,-1.33
2023-01-22T07:22:51.890Z,-1.41
2023-01-22T07:25:19.508Z,-1.33
2023-01-22T07:28:06.831Z,-1.26
2023-01-22T07:30:33.856Z,-1.18
2023-01-22T07:33:44.628Z,-1.29
2023-01-22T07:36:14.622Z,-1.30
2023-01-22T07:39:00.150Z,-1.22
2023-01-22T07:41:26.778Z,-1.32
2023-01-22T07:43:54.692Z,-1.24
2023-01-22T07:46:24.897Z,-1.31
2023-01-22T07:48:51.755Z,-1.22
2023-01-22T07:51:21.495Z,-1.30
2023-01-22T07:53:48.487Z,-1.20
2023-01-22T07:56:18.415Z,-1.11
2023-01-22T07:58:47.363Z,-1.23
2023-01-22T08:01:19.665Z,-1.23
2023-01-22T08:03:50.738Z,-1.22
2023-01-22T08:06:21.280Z,-1.27
2023-01-22T08:08:50.981Z,-1.27
2023-01-22T08:11:59.208Z,-1.23
2023-01-22T08:15:53.240Z,-1.21
2023-01-22T08:21:28.580Z,-1.19
2023-01-22T08:28:38.519Z,-1.11
2023-01-22T08:31:26.405Z,-0.92
2023-01-22T08:34:32.144Z,-0.93
2023-01-22T08:56:11.909Z,-0.86
2023-01-22T08:59:12.996Z,-0.93
2023-01-22T09:02:30.088Z,-0.93
2023-01-22T09:09:13.430Z,-0.80
2023-01-22T09:14:22.117Z,-0.82
2023-01-22T09:16:53.034Z,-0.77
2023-01-22T09:20:03.555Z,-0.74
2023-01-22T09:22:43.885Z,-0.74
2023-01-22T09:25:41.694Z,-0.84
2023-01-22T09:28:39.198Z,-0.65
2023-01-22T09:31:28.219Z,-0.79
2023-01-22T09:34:53.967Z,-0.81
2023-01-22T09:38:09.578Z,-0.75
2023-01-22T09:40:57.592Z,-0.50
2023-01-22T09:43:47.163Z,-0.57
2023-01-22T09:46:20.592Z,-0.61
2023-01-22T09:48:55.198Z,-0.45
2023-01-22T09:51:33.126Z,-0.41
2023-01-22T09:54:17.629Z,-0.31
2023-01-22T09:56:51.103Z,-0.41
2023-01-22T09:59:21.612Z,-0.40
2023-01-22T10:01:55.414Z,-0.34
2023-01-22T10:04:27.148Z,-0.46
2023-01-22T10:07:01.076Z,-0.47
2023-01-22T10:09:32.123Z,-0.47
2023-01-22T10:12:00.674Z,-0.50
2023-01-22T10:14:30.568Z,-0.60
2023-01-22T10:17:01.580Z,-0.46
2023-01-22T10:19:44.592Z,-0.55
2023-01-22T10:22:22.411Z,-0.61
2023-01-22T10:24:57.831Z,-0.54
2023-01-22T10:27:41.877Z,-0.33
2023-01-22T10:36:39.771Z,-0.28
2023-01-22T10:46:49.074Z,-0.02
2023-01-22T10:49:54.981Z,0.31
2023-01-22T10:55:43.212Z,0.56
2023-01-22T10:58:58.657Z,0.47
2023-01-22T11:02:29.367Z,0.36
2023-01-22T11:05:38.707Z,0.32
2023-01-22T11:08:44.328Z,0.38
2023-01-22T11:14:39.416Z,0.27
2023-01-22T11:17:54.927Z,0.44
2023-01-22T11:25:11.832Z,0.62
2023-01-22T11:31:38.474Z,0.80
2023-01-22T11:34:46.574Z,0.93
2023-01-22T11:38:22.323Z,0.93
2023-01-22T11:41:29.544Z,0.93
2023-01-22T11:44:23.199Z,0.83
2023-01-22T11:47:10.190Z,0.84
2023-01-22T11:50:25.235Z,1.00
2023-01-22T11:53:00.649Z,0.91
2023-01-22T11:55:50.976Z,1.00
2023-01-22T11:58:45.146Z,1.19
2023-01-22T12:01:27.559Z,1.06
2023-01-22T12:04:21.882Z,1.21
2023-01-22T12:07:26.932Z,0.74
2023-01-22T12:09:59.427Z,1.06
2023-01-22T12:12:41.634Z,1.00
2023-01-22T12:15:17.697Z,0.99
2023-01-22T12:18:06.019Z,0.81
2023-01-22T12:20:55.777Z,0.72
2023-01-22T12:23:30.651Z,0.76
2023-01-22T12:26:16.993Z,0.86
2023-01-22T12:29:10.485Z,0.76
2023-01-22T12:31:51.208Z,0.75
2023-01-22T12:35:00.315Z,0.89
2023-01-22T12:37:41.602Z,0.78
2023-01-22T12:40:39.915Z,0.90
2023-01-22T12:43:10.151Z,0.84
2023-01-22T12:45:45.460Z,0.90
2023-01-22T12:48:27.416Z,0.80
2023-01-22T12:50:56.583Z,0.71
2023-01-22T12:53:24.664Z,0.73
2023-01-22T12:56:09.551Z,0.72
2023-01-22T12:58:38.560Z,0.54
2023-01-22T13:01:11.525Z,0.45
2023-01-22T13:03:40.692Z,0.43
2023-01-22T13:06:31.651Z,0.38
2023-01-22T13:08:58.358Z,0.54
2023-01-22T13:11:34.266Z,0.34
2023-01-22T13:14:27.702Z,0.38
2023-01-22T13:17:01.246Z,0.43
2023-01-22T13:19:31.575Z,0.35
2023-01-22T13:21:59.851Z,0.21
2023-01-22T13:24:26.561Z,0.18
2023-01-22T13:26:56.601Z,0.19
2023-01-22T13:29:36.845Z,0.18
2023-01-22T13:32:16.826Z,0.26
2023-01-22T13:34:53.487Z,0.21
2023-01-22T13:37:24.688Z,0.23
2023-01-22T13:39:51.286Z,0.30
2023-01-22T13:42:24.488Z,0.36
2023-01-22T13:44:53.520Z,0.40
2023-01-22T13:47:40.419Z,0.39
2023-01-22T13:50:18.702Z,0.45
2023-01-22T13:52:45.738Z,0.45
2023-01-22T13:55:21.548Z,0.45
2023-01-22T13:57:58.763Z,0.41
2023-01-22T14:00:40.418Z,0.41
2023-01-22T14:03:24.278Z,0.33
2023-01-22T14:06:02.554Z,0.29
2023-01-22T14:08:31.486Z,0.28
2023-01-22T14:11:07.054Z,0.34
2023-01-22T14:14:16.548Z,0.32
2023-01-22T14:16:43.403Z,0.32
2023-01-22T14:19:10.118Z,0.34
2023-01-22T14:21:37.656Z,0.36
2023-01-22T14:24:49.103Z,0.30
2023-01-22T14:27:42.638Z,0.25
2023-01-22T14:30:27.010Z,0.12
2023-01-22T14:33:01.531Z,0.14
2023-01-22T14:35:52.407Z,0.12
2023-01-22T14:38:23.869Z,0.09
2023-01-22T14:40:50.737Z,0.31
2023-01-22T14:43:20.508Z,0.17
2023-01-22T14:45:49.879Z,0.25
2023-01-22T14:48:19.185Z,0.19
2023-01-22T14:50:49.489Z,0.17
2023-01-22T14:53:17.296Z,0.08
2023-01-22T14:55:45.476Z,0.03
2023-01-22T14:58:12.981Z,-0.03
2023-01-22T15:00:40.178Z,0.03
2023-01-22T15:03:07.217Z,0.03
2023-01-22T15:05:35.566Z,-0.06
2023-01-22T15:08:04.126Z,-0.05
2023-01-22T15:10:34.463Z,-0.04
2023-01-22T15:13:09.753Z,-0.02
2023-01-22T15:15:36.457Z,-0.08
2023-01-22T15:18:03.285Z,-0.03
2023-01-22T15:20:30.290Z,-0.08
2023-01-22T15:22:57.340Z,-0.02
2023-01-22T15:25:24.357Z,-0.08
2023-01-22T15:27:51.028Z,-0.12
2023-01-22T15:30:22.872Z,-0.09
2023-01-22T15:32:49.529Z,-0.12
2023-01-22T15:35:16.237Z,-0.09
2023-01-22T15:37:43.078Z,-0.10
2023-01-22T15:40:11.281Z,-0.06
2023-01-22T15:42:40.331Z,-0.06
2023-01-22T15:45:07.687Z,-0.07
2023-01-22T15:47:34.648Z,-0.10
2023-01-22T15:50:01.458Z,-0.09
2023-01-22T15:52:28.172Z,-0.12
2023-01-22T15:54:57.816Z,-0.12
2023-01-22T15:57:24.528Z,-0.10
2023-01-22T15:59:57.415Z,-0.09
2023-01-22T16:02:25.160Z,-0.07
2023-01-22T16:04:54.077Z,-0.04
2023-01-22T16:07:20.706Z,-0.08
2023-01-22T16:09:47.673Z,-0.10
2023-01-22T16:12:16.377Z,-0.10
2023-01-22T16:14:45.709Z,-0.07
2023-01-22T16:17:16.809Z,-0.09
2023-01-22T16:19:45.847Z,-0.07
2023-01-22T16:22:17.423Z,-0.06
2023-01-22T16:24:44.604Z,0.01
2023-01-22T16:27:13.549Z,0.02
2023-01-22T16:29:40.430Z,0.03
2023-01-22T16:32:07.077Z,0.19
2023-01-22T16:34:36.256Z,0.10
2023-01-22T16:37:03.142Z,0.11
2023-01-22T16:39:29.979Z,0.14
2023-01-22T16:41:57.079Z,0.15
2023-01-22T16:44:26.478Z,0.16
2023-01-22T16:46:57.674Z,0.03
2023-01-22T16:49:38.255Z,0.09
2023-01-22T16:52:21.316Z,0.01
2023-01-22T16:54:49.525Z,0.00
2023-01-22T16:57:16.431Z,-0.01
2023-01-22T16:59:47.746Z,0.01
2023-01-22T17:02:19.123Z,-0.03
2023-01-22T17:04:48.182Z,0.01
2023-01-22T17:07:33.614Z,-0.02
2023-01-22T17:10:08.007Z,-0.02
2023-01-22T17:12:35.035Z,-0.04
2023-01-22T17:15:01.794Z,-0.02
2023-01-22T17:17:28.492Z,0.02
2023-01-22T17:19:55.188Z,-0.03
2023-01-22T17:22:29.208Z,-0.08
2023-01-22T17:24:56.052Z,-0.07
2023-01-22T17:27:25.704Z,-0.04
2023-01-22T17:29:52.408Z,-0.05
2023-01-22T17:32:22.678Z,-0.04
2023-01-22T17:34:49.614Z,-0.09
2023-01-22T17:37:16.511Z,-0.07
2023-01-22T17:39:50.464Z,-0.09
2023-01-22T17:42:18.093Z,-0.06
2023-01-22T17:44:44.913Z,-0.11
2023-01-22T17:47:11.864Z,-0.13
2023-01-22T17:49:38.599Z,-0.13
2023-01-22T17:52:05.559Z,-0.13
2023-01-22T17:54:32.252Z,-0.12
2023-01-22T17:56:58.950Z,-0.11
2023-01-22T17:59:25.548Z,-0.12
2023-01-22T18:01:52.449Z,-0.12
2023-01-22T18:04:19.234Z,-0.13
2023-01-22T18:06:45.966Z,-0.12
2023-01-22T18:09:12.889Z,-0.08
2023-01-22T18:11:39.936Z,-0.09
2023-01-22T18:14:21.995Z,-0.08
2023-01-22T18:16:49.952Z,-0.09
2023-01-22T18:19:18.799Z,-0.05
2023-01-22T18:21:45.878Z,-0.07
2023-01-22T18:24:12.788Z,-0.07
2023-01-22T18:26:42.535Z,-0.07
2023-01-22T18:29:11.289Z,-0.10
2023-01-22T18:31:38.721Z,-0.09
2023-01-22T18:34:09.521Z,-0.07
2023-01-22T18:36:38.324Z,-0.09
2023-01-22T18:39:09.002Z,-0.10
2023-01-22T18:41:37.042Z,-0.11
2023-01-22T18:44:07.477Z,-0.11
2023-01-22T18:46:37.013Z,-0.15
2023-01-22T18:49:06.774Z,-0.16
2023-01-22T18:51:34.103Z,-0.18
2023-01-22T18:54:02.859Z,-0.19
2023-01-22T18:56:29.511Z,-0.19
2023-01-22T18:58:57.377Z,-0.19
2023-01-22T19:01:28.549Z,-0.22
2023-01-22T19:04:08.741Z,-0.21
2023-01-22T19:06:38.963Z,-0.24
2023-01-22T19:09:12.241Z,-0.22
2023-01-22T19:11:41.059Z,-0.23
2023-01-22T19:14:09.313Z,-0.23
2023-01-22T19:16:37.256Z,-0.21
2023-01-22T19:19:12.487Z,-0.25
2023-01-22T19:21:40.843Z,-0.22
2023-01-22T19:24:08.770Z,-0.21
2023-01-22T19:26:36.964Z,-0.20
2023-01-22T19:29:06.233Z,-0.21
2023-01-22T19:31:37.287Z,-0.21
2023-01-22T19:34:05.638Z,-0.17
2023-01-22T19:36:34.068Z,-0.18
2023-01-22T19:39:06.029Z,-0.16
2023-01-22T19:41:32.681Z,-0.17
2023-01-22T19:44:01.308Z,-0.17
2023-01-22T19:46:28.783Z,-0.09
2023-01-22T19:48:55.994Z,-0.12
2023-01-22T19:51:22.964Z,-0.15
2023-01-22T19:53:49.924Z,-0.13
2023-01-22T19:56:21.093Z,-0.16
2023-01-22T19:58:48.801Z,-0.17
2023-01-22T20:01:16.873Z,-0.18
2023-01-22T20:03:44.311Z,-0.16
2023-01-22T20:06:12.970Z,-0.18
2023-01-22T20:08:40.133Z,-0.17
2023-01-22T20:11:08.449Z,-0.13
2023-01-22T20:13:43.411Z,-0.20
2023-01-22T20:16:18.102Z,-0.20
2023-01-22T20:18:45.155Z,-0.19
2023-01-22T20:21:12.356Z,-0.16
2023-01-22T20:23:39.027Z,-0.16
2023-01-22T20:26:08.288Z,-0.18
2023-01-22T20:28:36.022Z,-0.16
2023-01-22T20:31:05.127Z,-0.21
2023-01-22T20:33:32.459Z,-0.22
2023-01-22T20:36:02.154Z,-0.21
2023-01-22T20:38:29.457Z,-0.19
2023-01-22T20:41:00.337Z,-0.23
2023-01-22T20:43:27.188Z,-0.21
2023-01-22T20:46:09.754Z,-0.22
2023-01-22T20:48:36.566Z,-0.21
2023-01-22T20:51:04.249Z,-0.13
2023-01-22T20:53:31.500Z,-0.20
2023-01-22T20:56:05.981Z,-0.20
2023-01-22T20:58:33.276Z,-0.23
2023-01-22T21:01:08.448Z,-0.23
2023-01-22T21:03:35.234Z,-0.22
2023-01-22T21:06:06.719Z,-0.23
2023-01-22T21:08:38.381Z,-0.25
2023-01-22T21:11:11.329Z,-0.26
2023-01-22T21:13:38.329Z,-0.25
2023-01-22T21:16:23.157Z,-0.27
2023-01-22T21:19:22.102Z,-0.24
2023-01-22T21:21:48.842Z,-0.20
2023-01-22T21:24:22.417Z,-0.23
2023-01-22T21:26:49.158Z,-0.23
2023-01-22T21:29:21.171Z,-0.21
2023-01-22T21:31:52.628Z,-0.19
2023-01-22T21:34:22.835Z,-0.22
2023-01-22T21:36:53.032Z,-0.20
2023-01-22T21:39:25.215Z,-0.22
2023-01-22T21:42:12.195Z,-0.17
2023-01-22T21:44:57.539Z,-0.25
2023-01-22T21:47:24.219Z,-0.22
2023-01-22T21:49:50.835Z,-0.24
2023-01-22T21:52:20.508Z,-0.23
2023-01-22T21:54:47.389Z,-0.22
2023-01-22T21:57:22.403Z,-0.21
2023-01-22T21:59:54.511Z,-0.28
2023-01-22T22:02:22.352Z,-0.27
2023-01-22T22:04:49.303Z,-0.25
2023-01-22T22:07:16.000Z,-0.26
2023-01-22T22:09:46.970Z,-0.19
2023-01-22T22:12:13.628Z,-0.16
2023-01-22T22:14:40.321Z,-0.23
2023-01-22T22:17:07.743Z,-0.18
2023-01-22T22:19:34.747Z,-0.21
2023-01-22T22:22:01.556Z,-0.21
2023-01-22T22:24:31.023Z,-0.21
2023-01-22T22:26:57.760Z,-0.20
2023-01-22T22:29:24.469Z,-0.23
2023-01-22T22:31:51.194Z,-0.20
2023-01-22T22:34:17.927Z,-0.21
2023-01-22T22:36:45.715Z,-0.22
2023-01-22T22:39:12.518Z,-0.23
2023-01-22T22:41:39.263Z,-0.20
2023-01-22T22:44:06.266Z,-0.13
2023-01-22T22:46:36.140Z,-0.12
2023-01-22T22:49:04.812Z,-0.12
2023-01-22T22:51:42.245Z,-0.11
2023-01-22T22:54:15.601Z,-0.15
2023-01-22T22:56:44.633Z,-0.17
2023-01-22T22:59:11.931Z,-0.17
2023-01-22T23:01:38.570Z,-0.17
2023-01-22T23:04:06.347Z,-0.20
2023-01-22T23:06:34.439Z,-0.16
2023-01-22T23:09:11.935Z,-0.08
2023-01-22T23:11:51.625Z,-0.11
2023-01-22T23:14:19.537Z,-0.15
2023-01-22T23:16:46.458Z,-0.18
2023-01-22T23:19:16.118Z,-0.18
2023-01-22T23:21:43.587Z,-0.15
2023-01-22T23:24:12.022Z,-0.06
2023-01-22T23:26:41.956Z,-0.11
2023-01-22T23:29:10.664Z,-0.13
2023-01-22T23:31:40.713Z,-0.14
2023-01-22T23:34:10.888Z,-0.15
2023-01-22T23:36:39.356Z,-0.17
2023-01-22T23:39:06.081Z,-0.16
2023-01-22T23:41:32.689Z,-0.13
2023-01-22T23:43:59.354Z,-0.16
2023-01-22T23:46:30.910Z,-0.24
2023-01-22T23:48:59.359Z,-0.20
2023-01-22T23:51:26.712Z,-0.20
2023-01-22T23:53:54.801Z,-0.20
2023-01-22T23:56:25.617Z,-0.20
2023-01-22T23:58:55.884Z,-0.21
